Time;durP1;ratioP1;P1;durP2;ratioP2;P2;SDS_P1;SDS_P2;PMS_P1;PMS_P2;Temp;Humidity;BMP_temperature;BMP_pressure;BME280_temperature;BME280_humidity;BME280_pressure;Samples;Min_cycle;Max_cycle;Signal;HPM_P1;HPM_P2
2022/01/06 00:00:32;;;;;;;5.20;2.70;;;14.50;93.60;;;;;;2012509;28;20188;-71
2022/01/06 00:01:30;;;;;;;4.75;2.65;;;14.50;93.70;;;;;;2012482;28;20157;-72
2022/01/06 00:02:29;;;;;;;5.20;2.90;;;14.40;93.60;;;;;;2012483;28;20165;-71
2022/01/06 00:03:28;;;;;;;3.90;2.20;;;14.40;93.70;;;;;;2012478;28;20211;-71
2022/01/06 00:04:27;;;;;;;8.40;2.77;;;14.40;93.70;;;;;;2012460;28;20218;-71
2022/01/06 00:05:25;;;;;;;5.30;2.70;;;14.40;93.60;;;;;;2012401;28;20419;-71
2022/01/06 00:06:24;;;;;;;5.53;2.90;;;14.40;93.60;;;;;;2011940;28;20513;-71
2022/01/06 00:07:23;;;;;;;6.07;2.55;;;14.40;93.80;;;;;;2012509;28;20592;-72
2022/01/06 00:08:22;;;;;;;9.20;2.73;;;14.50;94.00;;;;;;2012455;28;20188;-70
2022/01/06 00:09:21;;;;;;;5.50;2.83;;;14.40;93.80;;;;;;2012287;28;20236;-71
2022/01/06 00:10:20;;;;;;;7.80;2.50;;;14.40;93.90;;;;;;2012380;28;20243;-70
2022/01/06 00:11:19;;;;;;;5.95;2.10;;;14.40;93.90;;;;;;2012512;28;20655;-71
2022/01/06 00:12:20;;;;;;;3.93;2.43;;;14.40;93.90;;;;;;2012460;28;20195;-70
2022/01/06 00:13:26;;;;;;;4.03;2.30;;;14.40;94.00;;;;;;2011707;28;20220;-70
2022/01/06 00:15:21;;;;;;;4.60;2.08;;;14.40;93.90;;;;;;2011995;28;20157;-71
2022/01/06 00:17:05;;;;;;;4.10;2.50;;;14.40;94.00;;;;;;2012506;28;20219;-71
2022/01/06 00:23:53;;;;;;;6.05;3.03;;;14.30;94.10;;;;;;2012393;28;20643;-71
2022/01/06 00:24:51;;;;;;;3.47;2.10;;;14.30;94.20;;;;;;2012451;28;20165;-71
2022/01/06 00:25:51;;;;;;;5.67;2.40;;;14.30;94.20;;;;;;2012335;28;20255;-71
2022/01/06 00:26:50;;;;;;;3.83;2.38;;;14.30;94.00;;;;;;2012240;28;20496;-70
2022/01/06 00:27:48;;;;;;;3.78;2.25;;;14.40;94.30;;;;;;2012298;28;20234;-70
2022/01/06 00:28:47;;;;;;;6.07;2.70;;;14.40;94.20;;;;;;2012480;28;20222;-71
2022/01/06 00:29:45;;;;;;;5.13;2.47;;;14.40;94.30;;;;;;2012166;28;20184;-71
2022/01/06 00:30:44;;;;;;;5.57;2.20;;;14.40;94.30;;;;;;2012266;28;20180;-70
2022/01/06 00:31:43;;;;;;;5.57;2.58;;;14.30;94.20;;;;;;2012366;28;20218;-70
2022/01/06 00:32:41;;;;;;;3.53;2.30;;;14.40;94.30;;;;;;2012419;28;20265;-70
2022/01/06 00:33:40;;;;;;;8.63;2.53;;;14.30;94.30;;;;;;2012239;28;20557;-70
2022/01/06 00:34:38;;;;;;;3.30;2.70;;;14.30;94.30;;;;;;2012332;28;20647;-71
2022/01/06 00:35:37;;;;;;;4.17;2.20;;;14.30;94.00;;;;;;2012301;28;20226;-71
2022/01/06 00:36:40;;;;;;;3.77;2.00;;;14.30;94.40;;;;;;2012248;28;20200;-71
2022/01/06 00:37:39;;;;;;;4.68;2.78;;;14.40;94.70;;;;;;2012412;28;20194;-70
2022/01/06 00:38:38;;;;;;;3.93;2.50;;;14.30;94.60;;;;;;2012304;28;20690;-71
2022/01/06 00:39:36;;;;;;;4.83;2.73;;;14.30;94.50;;;;;;2012376;28;20578;-70
2022/01/06 00:40:36;;;;;;;5.00;2.67;;;14.30;94.50;;;;;;2012438;28;20533;-71
2022/01/06 00:41:36;;;;;;;3.08;2.60;;;14.30;94.70;;;;;;2012147;28;20180;-70
2022/01/06 00:42:35;;;;;;;3.45;2.30;;;14.30;94.60;;;;;;2012141;28;20172;-70
2022/01/06 00:43:33;;;;;;;5.57;2.17;;;14.40;94.50;;;;;;2012286;28;20214;-70
2022/01/06 00:44:32;;;;;;;4.40;2.13;;;14.40;94.50;;;;;;2012356;28;20180;-70
2022/01/06 00:45:31;;;;;;;5.73;2.63;;;14.40;94.30;;;;;;2012415;28;20281;-72
2022/01/06 00:46:30;;;;;;;3.40;2.22;;;14.30;94.40;;;;;;2012204;28;20636;-70
2022/01/06 00:47:28;;;;;;;4.17;2.40;;;14.30;94.50;;;;;;2012483;28;20185;-70
2022/01/06 00:48:27;;;;;;;3.50;2.13;;;14.30;94.40;;;;;;2011531;28;20206;-70
2022/01/06 00:49:25;;;;;;;7.27;2.10;;;14.30;94.30;;;;;;2011741;28;20187;-70
2022/01/06 00:50:24;;;;;;;8.20;2.47;;;14.30;94.30;;;;;;2012320;28;20234;-70
2022/01/06 00:51:23;;;;;;;4.43;1.90;;;14.30;94.10;;;;;;2012337;28;20208;-70
2022/01/06 00:52:21;;;;;;;4.93;2.30;;;14.30;94.10;;;;;;2012506;28;20179;-70
2022/01/06 00:53:20;;;;;;;3.87;2.33;;;14.30;94.00;;;;;;2012521;28;20703;-71
2022/01/06 00:54:18;;;;;;;4.27;2.20;;;14.30;93.80;;;;;;2012069;28;20172;-70
2022/01/06 00:55:17;;;;;;;5.47;2.40;;;14.30;93.60;;;;;;2012324;28;20336;-71
2022/01/06 00:56:16;;;;;;;3.40;2.10;;;14.30;93.30;;;;;;2011586;28;20189;-70
2022/01/06 00:57:14;;;;;;;5.67;2.27;;;14.40;93.10;;;;;;2011776;28;20404;-70
2022/01/06 00:58:13;;;;;;;3.90;2.17;;;14.30;92.80;;;;;;2012427;28;20264;-69
2022/01/06 00:59:11;;;;;;;3.47;2.23;;;14.30;92.70;;;;;;2012370;28;20165;-70
2022/01/06 01:00:11;;;;;;;3.37;2.30;;;14.30;92.80;;;;;;2012500;28;20248;-70
2022/01/06 01:01:09;;;;;;;3.85;2.17;;;14.30;92.80;;;;;;2012296;28;20204;-70
2022/01/06 01:02:08;;;;;;;5.40;3.13;;;14.30;92.50;;;;;;2017730;28;20202;-70
2022/01/06 01:03:16;;;;;;;7.30;2.53;;;14.30;92.50;;;;;;2013957;28;20259;-71
2022/01/06 01:04:15;;;;;;;2.47;1.63;;;14.30;92.80;;;;;;2012354;28;20168;-70
2022/01/06 01:05:13;;;;;;;2.90;1.80;;;14.30;92.20;;;;;;2012192;28;20210;-70
2022/01/06 01:06:11;;;;;;;3.67;2.20;;;14.30;92.00;;;;;;2011929;28;20532;-70
2022/01/06 01:07:10;;;;;;;3.23;2.03;;;14.30;92.00;;;;;;2012171;28;20609;-70
2022/01/06 01:08:09;;;;;;;2.40;1.80;;;14.30;91.90;;;;;;2012109;28;20698;-70
2022/01/06 01:09:07;;;;;;;3.90;2.40;;;14.30;91.90;;;;;;2011910;28;20224;-70
2022/01/06 01:10:06;;;;;;;4.50;1.87;;;14.30;91.90;;;;;;2012067;28;20172;-70
2022/01/06 01:11:06;;;;;;;4.70;1.93;;;14.30;91.90;;;;;;2012133;28;20164;-70
2022/01/06 01:12:05;;;;;;;3.72;2.17;;;14.20;91.90;;;;;;2012159;28;20943;-70
2022/01/06 01:13:04;;;;;;;4.73;2.30;;;14.30;92.20;;;;;;2012157;28;20177;-70
2022/01/06 01:14:17;;;;;;;3.78;2.30;;;14.30;91.80;;;;;;2012114;28;20734;-70
2022/01/06 01:15:20;;;;;;;3.08;1.92;;;14.30;91.80;;;;;;2012220;28;20160;-71
2022/01/06 01:16:25;;;;;;;3.03;2.13;;;14.20;91.70;;;;;;2012436;28;20164;-70
2022/01/06 01:17:26;;;;;;;7.07;2.78;;;14.20;91.80;;;;;;2011524;28;20248;-70
2022/01/06 01:18:24;;;;;;;3.15;2.05;;;14.30;91.80;;;;;;2012268;28;20192;-70
2022/01/06 01:19:24;;;;;;;4.30;2.33;;;14.30;91.80;;;;;;2013723;28;20357;-71
2022/01/06 01:20:22;;;;;;;2.28;1.83;;;14.30;91.70;;;;;;2013718;28;20226;-70
2022/01/06 01:21:26;;;;;;;3.00;2.00;;;14.30;91.60;;;;;;2013587;28;20226;-70
2022/01/06 01:22:24;;;;;;;3.58;2.30;;;14.30;91.60;;;;;;2013740;28;20210;-70
2022/01/06 01:23:23;;;;;;;4.40;2.43;;;14.20;91.40;;;;;;2013580;28;20180;-70
2022/01/06 01:24:22;;;;;;;2.93;1.93;;;14.30;91.60;;;;;;2012981;28;20592;-71
2022/01/06 01:25:21;;;;;;;3.50;2.20;;;14.30;91.60;;;;;;2013071;28;20168;-71
2022/01/06 01:26:19;;;;;;;3.23;2.23;;;14.30;91.50;;;;;;2013748;28;20177;-71
2022/01/06 01:27:22;;;;;;;2.30;1.90;;;14.30;91.50;;;;;;2013585;28;20661;-71
2022/01/06 01:28:20;;;;;;;3.17;1.90;;;14.20;91.50;;;;;;2013573;28;20182;-71
2022/01/06 01:29:19;;;;;;;2.20;1.77;;;14.30;91.40;;;;;;2013789;28;20624;-71
2022/01/06 01:30:17;;;;;;;2.83;2.00;;;14.30;91.50;;;;;;2013554;28;20172;-71
2022/01/06 01:32:27;;;;;;;3.13;2.83;;;14.30;91.60;;;;;;2013811;28;20160;-71
2022/01/06 01:33:26;;;;;;;5.15;2.40;;;14.30;91.40;;;;;;2013658;28;20199;-71
2022/01/06 01:34:26;;;;;;;5.33;2.07;;;14.30;91.40;;;;;;2013650;28;20537;-70
2022/01/06 01:35:31;;;;;;;4.40;1.98;;;14.30;91.30;;;;;;2013549;28;20172;-70
2022/01/06 01:36:30;;;;;;;6.32;1.95;;;14.40;91.40;;;;;;2012844;28;20196;-70
2022/01/06 01:37:30;;;;;;;5.80;2.10;;;14.40;91.40;;;;;;2013183;28;20175;-70
2022/01/06 01:38:29;;;;;;;2.67;1.85;;;14.30;91.40;;;;;;2013664;28;20195;-70
2022/01/06 01:39:28;;;;;;;2.50;1.50;;;14.30;91.30;;;;;;2012850;28;20706;-70
2022/01/06 01:40:27;;;;;;;3.70;2.17;;;14.30;91.30;;;;;;2013146;28;20168;-70
2022/01/06 01:41:25;;;;;;;4.40;1.90;;;14.30;91.30;;;;;;2013524;28;20557;-71
2022/01/06 01:42:25;;;;;;;5.03;1.80;;;14.30;91.30;;;;;;2013404;28;20600;-70
2022/01/06 01:43:24;;;;;;;3.78;2.20;;;14.30;91.30;;;;;;2013480;28;20168;-71
2022/01/06 01:44:23;;;;;;;3.70;2.03;;;14.40;91.20;;;;;;2013500;28;20176;-70
2022/01/06 01:45:27;;;;;;;4.43;2.00;;;14.40;91.30;;;;;;2013493;28;20591;-71
2022/01/06 01:46:30;;;;;;;5.32;2.00;;;14.40;91.10;;;;;;2013555;28;20220;-71
2022/01/06 01:47:32;;;;;;;5.55;2.33;;;14.30;91.10;;;;;;2013533;28;20173;-71
2022/01/06 01:48:34;;;;;;;3.17;2.10;;;14.40;91.10;;;;;;2013450;28;20199;-71
2022/01/06 01:49:48;;;;;;;5.72;2.17;;;14.40;91.20;;;;;;2013447;28;20599;-70
2022/01/06 01:50:46;;;;;;;3.40;1.80;;;14.30;91.10;;;;;;2012830;28;20195;-70
2022/01/06 01:51:45;;;;;;;4.30;1.83;;;14.30;91.10;;;;;;2012837;28;20172;-70
2022/01/06 01:52:50;;;;;;;2.10;1.45;;;14.30;91.10;;;;;;2013385;28;20206;-70
2022/01/06 01:53:48;;;;;;;3.95;1.80;;;14.30;91.20;;;;;;2013286;28;20203;-70
2022/01/06 01:54:47;;;;;;;2.43;2.10;;;14.30;90.80;;;;;;2013201;28;20537;-70
2022/01/06 01:55:45;;;;;;;2.33;1.83;;;14.30;91.10;;;;;;2013436;28;20211;-71
2022/01/06 01:56:45;;;;;;;4.47;1.90;;;14.40;91.00;;;;;;2013286;28;20200;-70
2022/01/06 01:57:43;;;;;;;3.45;2.15;;;14.40;90.90;;;;;;2013361;28;20200;-70
2022/01/06 01:58:42;;;;;;;3.13;2.30;;;14.30;91.00;;;;;;2013376;28;20179;-70
2022/01/06 01:59:40;;;;;;;5.70;1.80;;;14.30;90.60;;;;;;2013381;28;20171;-70
2022/01/06 02:00:39;;;;;;;5.10;2.20;;;14.40;90.70;;;;;;2013491;28;20575;-70
2022/01/06 02:01:38;;;;;;;6.60;2.10;;;14.40;90.60;;;;;;2013310;28;20255;-70
2022/01/06 02:02:37;;;;;;;2.70;1.90;;;14.40;90.60;;;;;;2013298;28;20399;-70
2022/01/06 02:03:35;;;;;;;2.50;1.70;;;14.30;90.70;;;;;;2013299;28;20267;-71
2022/01/06 02:04:34;;;;;;;4.50;2.27;;;14.30;90.70;;;;;;2013325;28;20169;-71
2022/01/06 02:05:32;;;;;;;4.60;2.30;;;14.30;90.70;;;;;;2013520;28;20176;-70
2022/01/06 02:06:31;;;;;;;4.27;2.10;;;14.40;90.60;;;;;;2013174;28;20219;-70
2022/01/06 02:07:29;;;;;;;5.13;2.03;;;14.40;90.70;;;;;;2013254;28;20628;-70
2022/01/06 02:08:30;;;;;;;4.20;1.80;;;14.40;90.70;;;;;;2013353;28;20256;-70
2022/01/06 02:09:29;;;;;;;3.45;2.00;;;14.30;90.70;;;;;;2013192;28;20185;-70
2022/01/06 02:10:29;;;;;;;5.63;1.87;;;14.40;90.60;;;;;;2013298;28;20255;-70
2022/01/06 02:11:27;;;;;;;4.03;2.20;;;14.30;90.70;;;;;;2013243;28;20255;-70
2022/01/06 02:12:28;;;;;;;6.00;2.00;;;14.30;90.60;;;;;;2013316;28;20188;-70
2022/01/06 02:13:29;;;;;;;2.55;1.70;;;14.30;90.60;;;;;;2012511;28;20762;-70
2022/01/06 02:14:27;;;;;;;2.50;1.63;;;14.30;90.60;;;;;;2012635;28;20176;-70
2022/01/06 02:15:27;;;;;;;2.27;1.87;;;14.30;90.70;;;;;;2013321;28;20196;-71
2022/01/06 02:16:27;;;;;;;1.80;1.50;;;14.30;90.70;;;;;;2013211;28;20193;-70
2022/01/06 02:17:25;;;;;;;2.88;1.75;;;14.30;90.70;;;;;;2013170;28;20176;-70
2022/01/06 02:18:25;;;;;;;3.80;1.67;;;14.30;90.60;;;;;;2013219;28;20569;-70
2022/01/06 02:19:24;;;;;;;3.58;1.70;;;14.30;90.60;;;;;;2013124;28;20176;-71
2022/01/06 02:20:23;;;;;;;3.90;1.90;;;14.30;90.30;;;;;;2013192;28;20173;-70
2022/01/06 02:21:21;;;;;;;3.22;1.60;;;14.20;90.10;;;;;;2013141;28;20195;-71
2022/01/06 02:22:20;;;;;;;3.13;1.87;;;14.20;90.10;;;;;;2013282;28;20535;-70
2022/01/06 02:23:21;;;;;;;2.80;1.70;;;14.20;90.40;;;;;;2013161;28;20184;-71
2022/01/06 02:24:19;;;;;;;2.85;1.85;;;14.20;90.20;;;;;;2013103;28;20191;-71
2022/01/06 02:25:26;;;;;;;2.90;1.73;;;14.20;90.40;;;;;;2013129;28;20275;-70
2022/01/06 02:26:25;;;;;;;3.30;2.03;;;14.20;90.30;;;;;;2013203;28;20204;-71
2022/01/06 02:27:24;;;;;;;3.93;1.83;;;14.20;90.20;;;;;;2013115;28;20219;-71
2022/01/06 02:28:23;;;;;;;3.47;1.58;;;14.10;90.00;;;;;;2013141;28;20671;-71
2022/01/06 02:29:21;;;;;;;3.40;1.80;;;14.10;90.00;;;;;;2012682;28;20176;-71
2022/01/06 02:30:22;;;;;;;4.97;1.80;;;14.00;89.80;;;;;;2013091;28;20169;-71
2022/01/06 02:31:21;;;;;;;2.72;1.77;;;14.10;90.00;;;;;;2012214;28;20277;-71
2022/01/06 02:32:21;;;;;;;2.77;1.90;;;14.00;90.30;;;;;;2012585;28;20242;-71
2022/01/06 02:33:21;;;;;;;2.72;1.85;;;14.00;89.80;;;;;;2012193;28;20192;-71
2022/01/06 02:34:20;;;;;;;2.70;1.65;;;14.00;90.00;;;;;;2012473;28;20173;-71
2022/01/06 02:35:22;;;;;;;3.30;2.13;;;14.00;90.00;;;;;;2012979;28;20184;-71
2022/01/06 02:36:21;;;;;;;4.13;2.13;;;14.00;90.00;;;;;;2012969;28;20204;-71
2022/01/06 02:37:19;;;;;;;3.03;2.20;;;14.00;89.70;;;;;;2013153;28;20165;-71
2022/01/06 02:38:18;;;;;;;2.23;1.50;;;14.00;89.70;;;;;;2013105;28;20176;-71
2022/01/06 02:39:16;;;;;;;3.50;2.07;;;14.00;89.80;;;;;;2013022;28;20176;-70
2022/01/06 02:40:17;;;;;;;2.40;1.77;;;14.00;90.00;;;;;;2013081;28;20184;-70
2022/01/06 02:41:16;;;;;;;4.53;2.03;;;14.00;90.00;;;;;;2013100;28;20176;-70
2022/01/06 02:42:15;;;;;;;2.07;1.40;;;14.00;89.90;;;;;;2013094;28;20195;-70
2022/01/06 02:43:17;;;;;;;4.43;1.53;;;14.00;90.00;;;;;;2012868;28;20564;-71
2022/01/06 02:44:19;;;;;;;2.22;2.00;;;14.00;89.90;;;;;;2012966;28;20195;-70
2022/01/06 02:45:20;;;;;;;2.75;1.50;;;14.00;89.80;;;;;;2013000;28;20169;-70
2022/01/06 02:46:18;;;;;;;3.33;1.77;;;13.90;89.90;;;;;;2012897;28;20222;-70
2022/01/06 02:47:16;;;;;;;4.50;2.20;;;14.00;90.00;;;;;;2013092;28;20211;-71
2022/01/06 02:48:16;;;;;;;2.50;1.80;;;14.00;90.00;;;;;;2013046;28;20176;-71
2022/01/06 02:49:14;;;;;;;3.45;2.20;;;14.10;90.10;;;;;;2012961;28;20177;-71
2022/01/06 02:50:14;;;;;;;7.63;3.00;;;14.00;89.70;;;;;;2013037;28;20181;-71
2022/01/06 02:51:12;;;;;;;2.28;1.70;;;14.00;89.80;;;;;;2012789;28;20184;-70
2022/01/06 02:52:11;;;;;;;2.53;1.50;;;14.10;89.60;;;;;;2012915;28;20254;-70
2022/01/06 02:53:11;;;;;;;3.47;1.80;;;14.10;89.70;;;;;;2012878;28;20223;-71
2022/01/06 02:54:09;;;;;;;2.00;1.17;;;14.10;89.70;;;;;;2012895;28;20566;-71
2022/01/06 02:55:12;;;;;;;1.97;1.70;;;14.10;89.70;;;;;;2012844;28;20177;-71
2022/01/06 02:56:10;;;;;;;3.42;2.00;;;14.10;89.40;;;;;;2012930;28;20568;-71
2022/01/06 02:57:09;;;;;;;2.33;1.50;;;14.10;89.30;;;;;;2012887;28;20181;-70
2022/01/06 02:58:08;;;;;;;3.90;2.08;;;14.10;89.70;;;;;;2012928;28;20169;-71
2022/01/06 02:59:06;;;;;;;3.70;1.80;;;14.10;89.70;;;;;;2012239;28;20184;-70
2022/01/06 03:00:07;;;;;;;2.27;1.80;;;14.10;90.20;;;;;;2012345;28;20786;-71
2022/01/06 03:01:06;;;;;;;3.03;1.30;;;14.20;90.00;;;;;;2012892;28;20172;-71
2022/01/06 03:02:04;;;;;;;3.00;1.53;;;14.10;89.50;;;;;;2012901;28;20172;-71
2022/01/06 03:03:03;;;;;;;7.00;2.80;;;14.20;89.20;;;;;;2012239;28;20213;-70
2022/01/06 03:04:01;;;;;;;2.77;1.70;;;14.20;89.60;;;;;;2012205;28;20267;-71
2022/01/06 03:05:00;;;;;;;1.60;1.43;;;14.10;90.00;;;;;;2012272;28;20180;-70
2022/01/06 03:05:58;;;;;;;2.33;1.70;;;14.20;90.00;;;;;;2011417;28;20172;-71
2022/01/06 03:06:57;;;;;;;7.43;1.87;;;14.20;89.80;;;;;;2012188;28;20194;-71
2022/01/06 03:07:56;;;;;;;1.93;1.53;;;14.30;90.10;;;;;;2012751;28;20188;-71
2022/01/06 03:08:54;;;;;;;2.83;1.83;;;14.20;90.30;;;;;;2012712;28;20548;-70
2022/01/06 03:09:55;;;;;;;3.00;1.60;;;14.30;90.20;;;;;;2012826;28;20184;-70
2022/01/06 03:10:56;;;;;;;2.80;1.55;;;14.30;89.80;;;;;;2012779;28;20684;-70
2022/01/06 03:11:55;;;;;;;5.35;1.90;;;14.30;90.00;;;;;;2012900;28;20475;-71
2022/01/06 03:12:54;;;;;;;3.00;1.60;;;14.30;89.60;;;;;;2012878;28;20157;-71
2022/01/06 03:13:56;;;;;;;3.90;1.77;;;14.30;89.40;;;;;;2012717;28;20208;-70
2022/01/06 03:14:55;;;;;;;2.97;1.85;;;14.30;90.00;;;;;;2012764;28;20173;-70
2022/01/06 03:15:53;;;;;;;3.83;1.60;;;14.30;89.70;;;;;;2012771;28;20169;-71
2022/01/06 03:16:52;;;;;;;2.00;1.50;;;14.30;89.30;;;;;;2012633;28;20192;-71
2022/01/06 03:17:58;;;;;;;2.30;1.73;;;14.30;89.50;;;;;;2012806;28;20570;-71
2022/01/06 03:19:02;;;;;;;2.10;1.50;;;14.30;89.60;;;;;;2012954;28;20149;-71
2022/01/06 03:20:06;;;;;;;1.85;1.40;;;14.20;89.50;;;;;;2011980;28;20173;-71
2022/01/06 03:21:04;;;;;;;3.67;1.90;;;14.30;90.20;;;;;;2012220;28;20228;-71
2022/01/06 03:22:03;;;;;;;2.40;1.40;;;14.30;90.10;;;;;;2012715;28;20168;-71
2022/01/06 03:23:01;;;;;;;1.60;1.37;;;14.30;90.10;;;;;;2012824;28;20234;-71
2022/01/06 03:24:00;;;;;;;3.10;1.80;;;14.30;90.10;;;;;;2012725;28;20638;-71
2022/01/06 03:24:59;;;;;;;2.53;1.90;;;14.30;90.10;;;;;;2012720;28;20627;-71
2022/01/06 03:25:57;;;;;;;1.60;1.50;;;14.30;90.00;;;;;;2012830;28;20628;-71
2022/01/06 03:26:56;;;;;;;5.00;1.57;;;14.40;90.00;;;;;;2012589;28;20431;-71
2022/01/06 03:27:54;;;;;;;3.10;1.30;;;14.30;89.80;;;;;;2012039;28;20218;-71
2022/01/06 03:28:53;;;;;;;2.60;1.50;;;14.40;89.80;;;;;;2012304;28;20251;-71
2022/01/06 03:29:51;;;;;;;3.17;1.57;;;14.30;90.00;;;;;;2012712;28;20287;-71
2022/01/06 03:30:50;;;;;;;2.60;1.60;;;14.40;90.00;;;;;;2012536;28;20698;-71
2022/01/06 03:31:48;;;;;;;2.30;1.37;;;14.30;89.90;;;;;;2012737;28;20168;-71
2022/01/06 03:32:47;;;;;;;1.77;1.20;;;14.30;90.00;;;;;;2012621;28;20247;-71
2022/01/06 03:33:46;;;;;;;5.32;1.70;;;14.30;90.00;;;;;;2012640;28;20748;-71
2022/01/06 03:34:46;;;;;;;2.00;1.50;;;14.40;90.00;;;;;;2012609;28;20184;-71
2022/01/06 03:35:44;;;;;;;2.53;1.65;;;14.30;90.00;;;;;;2012667;28;20717;-69
2022/01/06 03:36:43;;;;;;;2.70;1.80;;;14.30;90.00;;;;;;2012489;28;20556;-70
2022/01/06 03:37:42;;;;;;;2.77;1.40;;;14.30;90.00;;;;;;2012704;28;20172;-70
2022/01/06 03:38:40;;;;;;;3.37;1.60;;;14.40;90.00;;;;;;2012625;28;20168;-70
2022/01/06 03:39:40;;;;;;;3.00;1.70;;;14.30;90.00;;;;;;2012565;28;20670;-70
2022/01/06 03:40:40;;;;;;;2.05;1.52;;;14.40;90.00;;;;;;2011911;28;20164;-70
2022/01/06 03:41:38;;;;;;;6.80;1.58;;;14.40;89.90;;;;;;2012347;28;20547;-70
2022/01/06 03:42:38;;;;;;;3.17;1.80;;;14.30;90.00;;;;;;2012705;28;20181;-70
2022/01/06 03:43:37;;;;;;;3.85;1.65;;;14.40;90.00;;;;;;2012603;28;20177;-70
2022/01/06 03:44:35;;;;;;;2.60;1.67;;;14.40;90.00;;;;;;2012564;28;20694;-70
2022/01/06 03:45:34;;;;;;;3.57;1.80;;;14.40;90.00;;;;;;2012643;28;20176;-70
2022/01/06 03:46:33;;;;;;;3.40;1.80;;;14.40;90.00;;;;;;2012528;28;20589;-70
2022/01/06 03:47:31;;;;;;;2.90;1.57;;;14.40;90.30;;;;;;2011899;28;20621;-70
2022/01/06 03:48:30;;;;;;;1.80;1.30;;;14.40;90.00;;;;;;2011927;28;20184;-70
2022/01/06 03:49:29;;;;;;;2.97;1.87;;;14.40;90.00;;;;;;2012561;28;20169;-70
2022/01/06 03:50:28;;;;;;;3.00;1.63;;;14.40;89.80;;;;;;2012623;28;20642;-70
2022/01/06 03:51:26;;;;;;;2.20;1.60;;;14.40;89.70;;;;;;2011939;28;20204;-70
2022/01/06 03:52:25;;;;;;;1.70;1.50;;;14.40;90.10;;;;;;2011763;28;20435;-70
2022/01/06 03:53:23;;;;;;;1.50;1.40;;;14.40;90.00;;;;;;2011670;28;20465;-69
2022/01/06 03:54:23;;;;;;;3.40;1.70;;;14.40;90.10;;;;;;2012044;28;20185;-70
2022/01/06 03:55:21;;;;;;;3.15;1.90;;;14.40;90.30;;;;;;2012546;28;20177;-70
2022/01/06 03:56:20;;;;;;;3.73;1.50;;;14.40;90.30;;;;;;2012541;28;20729;-70
2022/01/06 03:57:18;;;;;;;2.30;1.40;;;14.40;90.00;;;;;;2012677;28;20199;-70
2022/01/06 03:58:17;;;;;;;1.70;1.30;;;14.30;90.00;;;;;;2003955;28;20596;-70
2022/01/06 03:59:16;;;;;;;2.03;1.33;;;14.30;89.90;;;;;;2004244;28;20177;-70
2022/01/06 04:00:18;;;;;;;2.65;1.40;;;14.40;90.00;;;;;;2019127;28;20184;-70
2022/01/06 04:01:17;;;;;;;1.77;1.38;;;14.40;90.00;;;;;;2020644;28;20634;-70
2022/01/06 04:02:16;;;;;;;2.90;2.00;;;14.50;90.00;;;;;;2021760;28;20198;-70
2022/01/06 04:03:14;;;;;;;2.30;1.33;;;14.50;90.30;;;;;;2021977;28;20176;-70
2022/01/06 04:04:13;;;;;;;4.27;1.30;;;14.40;89.90;;;;;;2021310;28;20172;-70
2022/01/06 04:05:12;;;;;;;2.25;1.30;;;14.40;90.00;;;;;;2020961;28;20183;-70
2022/01/06 04:06:11;;;;;;;2.50;1.67;;;14.40;89.90;;;;;;2021878;28;20207;-70
2022/01/06 04:07:09;;;;;;;3.60;1.57;;;14.40;89.60;;;;;;2021513;28;20199;-71
2022/01/06 04:08:08;;;;;;;5.17;2.10;;;14.40;89.60;;;;;;2020807;28;20200;-70
2022/01/06 04:09:07;;;;;;;2.50;1.50;;;14.40;89.70;;;;;;2020513;28;20250;-70
2022/01/06 04:10:07;;;;;;;2.17;1.70;;;14.40;90.00;;;;;;2013106;28;20669;-70
2022/01/06 04:11:06;;;;;;;2.47;1.25;;;14.40;90.00;;;;;;2012466;28;20187;-70
2022/01/06 04:12:09;;;;;;;2.93;1.60;;;14.40;89.70;;;;;;2012503;28;20196;-70
2022/01/06 04:13:07;;;;;;;2.53;1.55;;;14.40;89.90;;;;;;2012355;28;20173;-70
2022/01/06 04:14:06;;;;;;;2.13;1.20;;;14.40;89.70;;;;;;2012542;28;20192;-70
2022/01/06 04:15:10;;;;;;;1.50;1.30;;;14.40;90.00;;;;;;2011801;28;20176;-70
2022/01/06 04:16:12;;;;;;;1.88;1.33;;;14.50;90.20;;;;;;2011619;28;20223;-71
2022/01/06 04:17:11;;;;;;;1.88;1.23;;;14.40;89.70;;;;;;2011671;28;20177;-70
2022/01/06 04:18:09;;;;;;;2.40;1.30;;;14.40;89.70;;;;;;2012016;28;20209;-70
2022/01/06 04:19:09;;;;;;;1.80;1.53;;;14.40;90.00;;;;;;2012316;28;20249;-70
2022/01/06 04:20:08;;;;;;;2.53;1.70;;;14.40;89.80;;;;;;2012077;28;20612;-70
2022/01/06 04:21:07;;;;;;;2.08;1.30;;;14.40;90.10;;;;;;2012050;28;20181;-70
2022/01/06 04:22:05;;;;;;;2.40;1.50;;;14.40;90.00;;;;;;2011468;28;20627;-71
2022/01/06 04:23:04;;;;;;;1.50;1.40;;;14.50;90.30;;;;;;2011374;28;20277;-70
2022/01/06 04:24:03;;;;;;;1.93;1.40;;;14.40;89.70;;;;;;2011835;28;20199;-70
2022/01/06 04:25:02;;;;;;;2.03;1.50;;;14.40;90.10;;;;;;2011709;28;20164;-70
2022/01/06 04:26:01;;;;;;;1.75;1.20;;;14.40;89.80;;;;;;2011708;28;20187;-70
2022/01/06 04:26:59;;;;;;;2.57;1.60;;;14.50;90.00;;;;;;2011909;28;20172;-70
2022/01/06 04:27:58;;;;;;;3.10;1.37;;;14.40;89.80;;;;;;2012134;28;20164;-71
2022/01/06 04:28:56;;;;;;;4.60;1.50;;;14.40;90.20;;;;;;2012122;28;20644;-70
2022/01/06 04:29:55;;;;;;;4.20;1.57;;;14.50;90.00;;;;;;2011373;28;20628;-70
2022/01/06 04:30:53;;;;;;;1.30;1.20;;;14.40;89.90;;;;;;2011477;28;20169;-70
2022/01/06 04:31:52;;;;;;;2.83;1.50;;;14.40;89.70;;;;;;2012063;28;20203;-70
2022/01/06 04:32:51;;;;;;;1.47;1.37;;;14.40;89.90;;;;;;2012407;28;20631;-70
2022/01/06 04:33:49;;;;;;;2.47;1.30;;;14.40;89.80;;;;;;2012212;28;20203;-70
2022/01/06 04:34:48;;;;;;;4.77;1.70;;;14.40;89.90;;;;;;2012283;28;20203;-70
2022/01/06 04:35:46;;;;;;;1.97;1.50;;;14.40;89.50;;;;;;2012311;28;20179;-69
2022/01/06 04:36:52;;;;;;;2.83;1.40;;;14.40;89.80;;;;;;2011546;28;20192;-70
2022/01/06 04:37:50;;;;;;;1.38;1.27;;;14.40;89.90;;;;;;2011666;28;20586;-70
2022/01/06 04:38:49;;;;;;;1.93;1.20;;;14.50;90.30;;;;;;2011635;28;20180;-70
2022/01/06 04:39:47;;;;;;;2.80;1.63;;;14.40;90.00;;;;;;2019133;28;20176;-71
2022/01/06 04:40:46;;;;;;;2.33;1.37;;;14.40;90.10;;;;;;2012757;28;20187;-70
2022/01/06 04:41:45;;;;;;;1.43;1.20;;;14.40;90.00;;;;;;2012127;28;20176;-70
2022/01/06 04:42:43;;;;;;;1.90;1.10;;;14.40;90.20;;;;;;2012251;28;20184;-71
2022/01/06 04:43:42;;;;;;;2.67;1.30;;;14.40;90.10;;;;;;2012472;28;20895;-70
2022/01/06 04:44:40;;;;;;;3.00;1.37;;;14.40;90.10;;;;;;2012234;28;20596;-70
2022/01/06 04:45:39;;;;;;;1.50;1.20;;;14.50;90.10;;;;;;2012227;28;20191;-70
2022/01/06 04:46:37;;;;;;;2.03;1.60;;;14.40;90.10;;;;;;2012303;28;20719;-70
2022/01/06 04:47:36;;;;;;;1.80;1.60;;;14.40;90.10;;;;;;2012241;28;20257;-70
2022/01/06 04:48:37;;;;;;;1.63;1.37;;;14.40;90.20;;;;;;2012299;28;20294;-70
2022/01/06 04:49:35;;;;;;;2.55;1.30;;;14.40;90.10;;;;;;2012270;28;20172;-70
2022/01/06 04:50:34;;;;;;;2.87;1.43;;;14.40;90.30;;;;;;2012252;28;20187;-70
2022/01/06 04:51:32;;;;;;;1.70;1.40;;;14.40;90.10;;;;;;2012301;28;20179;-70
2022/01/06 04:52:31;;;;;;;1.80;1.30;;;14.40;90.10;;;;;;2012592;28;20182;-70
2022/01/06 04:53:30;;;;;;;2.33;1.50;;;14.40;90.20;;;;;;2013051;28;20722;-70
2022/01/06 04:54:29;;;;;;;2.83;1.53;;;14.40;90.10;;;;;;2020496;28;20178;-70
2022/01/06 04:55:27;;;;;;;1.77;1.23;;;14.40;90.10;;;;;;2012996;28;20182;-70
2022/01/06 04:56:26;;;;;;;1.47;1.17;;;14.40;90.50;;;;;;2014563;28;20220;-71
2022/01/06 04:57:24;;;;;;;2.30;1.33;;;14.40;90.30;;;;;;2015679;28;20200;-71
2022/01/06 04:58:23;;;;;;;4.00;1.20;;;14.40;90.30;;;;;;2016195;28;20179;-71
2022/01/06 04:59:21;;;;;;;5.70;1.33;;;14.40;90.30;;;;;;2014667;28;20639;-71
2022/01/06 05:00:20;;;;;;;2.00;1.40;;;14.50;90.40;;;;;;2014149;28;20226;-70
2022/01/06 05:01:18;;;;;;;1.33;1.20;;;14.50;90.40;;;;;;2013882;28;20180;-70
2022/01/06 05:02:17;;;;;;;5.43;1.20;;;14.50;90.30;;;;;;2013890;28;20677;-69
2022/01/06 05:03:15;;;;;;;1.50;1.30;;;14.40;90.20;;;;;;2013795;28;20173;-70
2022/01/06 05:04:14;;;;;;;1.50;1.33;;;14.50;90.30;;;;;;2013730;28;20177;-69
2022/01/06 05:05:13;;;;;;;1.87;1.57;;;14.40;90.50;;;;;;2013794;28;20248;-69
2022/01/06 05:06:12;;;;;;;1.60;1.20;;;14.40;90.40;;;;;;2013556;28;20172;-70
2022/01/06 05:07:10;;;;;;;8.07;1.50;;;14.40;90.40;;;;;;2013703;28;20169;-70
2022/01/06 05:08:09;;;;;;;2.80;1.90;;;14.40;90.70;;;;;;2014241;28;20238;-70
2022/01/06 05:09:07;;;;;;;2.93;1.40;;;14.40;90.70;;;;;;2014826;28;20212;-70
2022/01/06 05:10:07;;;;;;;4.00;1.30;;;14.40;90.50;;;;;;2014394;28;20180;-71
2022/01/06 05:11:05;;;;;;;1.75;1.35;;;14.40;90.60;;;;;;2016378;28;20183;-68
2022/01/06 05:12:04;;;;;;;3.00;1.27;;;14.30;90.60;;;;;;2015375;28;20196;-69
2022/01/06 05:13:02;;;;;;;1.60;1.30;;;14.40;90.70;;;;;;2015744;28;20176;-69
2022/01/06 05:14:01;;;;;;;1.93;1.40;;;14.40;90.50;;;;;;2015753;28;20465;-71
2022/01/06 05:14:59;;;;;;;2.20;1.20;;;14.40;90.50;;;;;;2016414;28;20176;-69
2022/01/06 05:15:58;;;;;;;1.87;1.40;;;14.40;90.60;;;;;;2016135;28;20207;-70
2022/01/06 05:16:56;;;;;;;1.97;1.47;;;14.40;90.50;;;;;;2014705;28;20250;-69
2022/01/06 05:17:55;;;;;;;2.60;1.37;;;14.40;90.60;;;;;;2014002;28;20508;-70